sensor_id;sensor_type;location;lat;lon;timestamp;P1;durP1;ratioP1;P2;durP2;ratioP2
21183;SDS011;18176;49.502;11.754;2023-05-14T00:01:04;8.27;;;6.23;;
21183;SDS011;18176;49.502;11.754;2023-05-14T00:05:05;7.73;;;6.53;;
21183;SDS011;18176;49.502;11.754;2023-05-14T00:09:07;8.13;;;7.07;;
21183;SDS011;18176;49.502;11.754;2023-05-14T00:13:07;9.80;;;7.33;;
21183;SDS011;18176;49.502;11.754;2023-05-14T00:17:10;8.83;;;7.20;;
21183;SDS011;18176;49.502;11.754;2023-05-14T00:21:11;9.57;;;8.07;;
21183;SDS011;18176;49.502;11.754;2023-05-14T00:25:11;11.23;;;7.23;;
21183;SDS011;18176;49.502;11.754;2023-05-14T00:29:11;7.37;;;6.13;;
21183;SDS011;18176;49.502;11.754;2023-05-14T00:33:14;10.37;;;7.30;;
21183;SDS011;18176;49.502;11.754;2023-05-14T00:37:15;8.87;;;7.23;;
21183;SDS011;18176;49.502;11.754;2023-05-14T00:41:15;9.43;;;7.60;;
21183;SDS011;18176;49.502;11.754;2023-05-14T00:45:16;11.23;;;7.50;;
21183;SDS011;18176;49.502;11.754;2023-05-14T00:49:19;9.50;;;7.90;;
21183;SDS011;18176;49.502;11.754;2023-05-14T00:53:20;10.20;;;7.93;;
21183;SDS011;18176;49.502;11.754;2023-05-14T00:57:21;12.30;;;8.50;;
21183;SDS011;18176;49.502;11.754;2023-05-14T01:01:21;10.27;;;7.70;;
21183;SDS011;18176;49.502;11.754;2023-05-14T01:05:26;10.80;;;6.97;;
21183;SDS011;18176;49.502;11.754;2023-05-14T01:09:39;12.27;;;7.73;;
21183;SDS011;18176;49.502;11.754;2023-05-14T01:13:49;10.17;;;7.30;;
21183;SDS011;18176;49.502;11.754;2023-05-14T01:18:02;14.13;;;8.17;;
21183;SDS011;18176;49.502;11.754;2023-05-14T01:22:10;15.80;;;8.47;;
21183;SDS011;18176;49.502;11.754;2023-05-14T01:26:12;11.70;;;8.23;;
21183;SDS011;18176;49.502;11.754;2023-05-14T01:30:12;14.83;;;9.07;;
21183;SDS011;18176;49.502;11.754;2023-05-14T01:34:21;16.30;;;9.97;;
21183;SDS011;18176;49.502;11.754;2023-05-14T01:38:27;11.20;;;8.40;;
21183;SDS011;18176;49.502;11.754;2023-05-14T01:42:29;11.27;;;8.50;;
21183;SDS011;18176;49.502;11.754;2023-05-14T01:46:31;10.30;;;8.30;;
21183;SDS011;18176;49.502;11.754;2023-05-14T01:50:32;12.00;;;8.20;;
21183;SDS011;18176;49.502;11.754;2023-05-14T01:54:34;15.50;;;9.10;;
21183;SDS011;18176;49.502;11.754;2023-05-14T01:58:35;10.60;;;8.40;;
21183;SDS011;18176;49.502;11.754;2023-05-14T02:02:36;15.53;;;8.67;;
21183;SDS011;18176;49.502;11.754;2023-05-14T02:06:37;11.40;;;8.50;;
21183;SDS011;18176;49.502;11.754;2023-05-14T02:10:40;14.90;;;8.77;;
21183;SDS011;18176;49.502;11.754;2023-05-14T02:14:40;11.13;;;8.53;;
21183;SDS011;18176;49.502;11.754;2023-05-14T02:18:41;14.33;;;9.50;;
21183;SDS011;18176;49.502;11.754;2023-05-14T02:22:42;12.17;;;8.90;;
21183;SDS011;18176;49.502;11.754;2023-05-14T02:26:45;12.53;;;8.97;;
21183;SDS011;18176;49.502;11.754;2023-05-14T02:30:45;12.97;;;9.80;;
21183;SDS011;18176;49.502;11.754;2023-05-14T02:34:45;12.23;;;9.47;;
21183;SDS011;18176;49.502;11.754;2023-05-14T02:38:46;14.73;;;10.80;;
21183;SDS011;18176;49.502;11.754;2023-05-14T02:42:48;14.13;;;10.77;;
21183;SDS011;18176;49.502;11.754;2023-05-14T02:46:49;13.77;;;10.90;;
21183;SDS011;18176;49.502;11.754;2023-05-14T02:50:50;17.03;;;11.53;;
21183;SDS011;18176;49.502;11.754;2023-05-14T02:54:50;15.97;;;11.30;;
21183;SDS011;18176;49.502;11.754;2023-05-14T02:58:53;13.30;;;9.53;;
21183;SDS011;18176;49.502;11.754;2023-05-14T03:02:54;11.00;;;9.03;;
21183;SDS011;18176;49.502;11.754;2023-05-14T03:06:54;10.53;;;7.93;;
21183;SDS011;18176;49.502;11.754;2023-05-14T03:10:55;13.07;;;8.43;;
21183;SDS011;18176;49.502;11.754;2023-05-14T03:14:58;13.23;;;9.90;;
21183;SDS011;18176;49.502;11.754;2023-05-14T03:18:59;12.53;;;9.83;;
21183;SDS011;18176;49.502;11.754;2023-05-14T03:22:59;13.20;;;8.70;;
21183;SDS011;18176;49.502;11.754;2023-05-14T03:27:00;9.73;;;8.20;;
21183;SDS011;18176;49.502;11.754;2023-05-14T03:31:03;10.10;;;7.47;;
21183;SDS011;18176;49.502;11.754;2023-05-14T03:35:06;8.87;;;7.20;;
21183;SDS011;18176;49.502;11.754;2023-05-14T03:39:07;9.83;;;7.90;;
21183;SDS011;18176;49.502;11.754;2023-05-14T03:43:10;11.73;;;9.17;;
21183;SDS011;18176;49.502;11.754;2023-05-14T03:47:14;12.90;;;9.40;;
21183;SDS011;18176;49.502;11.754;2023-05-14T03:51:15;11.97;;;8.87;;
21183;SDS011;18176;49.502;11.754;2023-05-14T03:55:15;12.83;;;8.50;;
21183;SDS011;18176;49.502;11.754;2023-05-14T03:59:16;12.77;;;8.50;;
21183;SDS011;18176;49.502;11.754;2023-05-14T04:03:19;12.33;;;8.70;;
21183;SDS011;18176;49.502;11.754;2023-05-14T04:07:19;12.53;;;8.80;;
21183;SDS011;18176;49.502;11.754;2023-05-14T04:11:22;14.67;;;9.60;;
21183;SDS011;18176;49.502;11.754;2023-05-14T04:15:22;11.43;;;9.00;;
21183;SDS011;18176;49.502;11.754;2023-05-14T04:19:25;14.43;;;10.20;;
21183;SDS011;18176;49.502;11.754;2023-05-14T04:23:25;14.07;;;10.50;;
21183;SDS011;18176;49.502;11.754;2023-05-14T04:27:27;13.47;;;9.73;;
21183;SDS011;18176;49.502;11.754;2023-05-14T04:31:27;13.63;;;9.57;;
21183;SDS011;18176;49.502;11.754;2023-05-14T04:35:31;13.47;;;9.10;;
21183;SDS011;18176;49.502;11.754;2023-05-14T04:39:31;13.70;;;10.07;;
21183;SDS011;18176;49.502;11.754;2023-05-14T04:43:32;12.93;;;10.10;;
21183;SDS011;18176;49.502;11.754;2023-05-14T04:47:32;14.13;;;9.83;;
21183;SDS011;18176;49.502;11.754;2023-05-14T04:51:35;13.13;;;9.83;;
21183;SDS011;18176;49.502;11.754;2023-05-14T04:55:36;12.17;;;9.17;;
21183;SDS011;18176;49.502;11.754;2023-05-14T04:59:36;11.80;;;9.23;;
21183;SDS011;18176;49.502;11.754;2023-05-14T05:03:37;13.50;;;10.07;;
21183;SDS011;18176;49.502;11.754;2023-05-14T05:07:40;12.80;;;10.00;;
21183;SDS011;18176;49.502;11.754;2023-05-14T05:11:40;15.27;;;10.60;;
21183;SDS011;18176;49.502;11.754;2023-05-14T05:15:41;13.30;;;10.33;;
21183;SDS011;18176;49.502;11.754;2023-05-14T05:19:41;15.30;;;11.63;;
21183;SDS011;18176;49.502;11.754;2023-05-14T05:23:44;15.43;;;11.60;;
21183;SDS011;18176;49.502;11.754;2023-05-14T05:27:44;17.13;;;12.27;;
21183;SDS011;18176;49.502;11.754;2023-05-14T05:31:45;15.30;;;11.23;;
21183;SDS011;18176;49.502;11.754;2023-05-14T05:35:45;14.93;;;10.07;;
21183;SDS011;18176;49.502;11.754;2023-05-14T05:39:48;11.97;;;9.17;;
21183;SDS011;18176;49.502;11.754;2023-05-14T05:43:49;11.40;;;8.83;;
21183;SDS011;18176;49.502;11.754;2023-05-14T05:47:50;10.93;;;8.87;;
21183;SDS011;18176;49.502;11.754;2023-05-14T05:51:50;12.23;;;8.50;;
21183;SDS011;18176;49.502;11.754;2023-05-14T05:55:53;10.40;;;8.23;;
21183;SDS011;18176;49.502;11.754;2023-05-14T05:59:54;11.50;;;8.00;;
21183;SDS011;18176;49.502;11.754;2023-05-14T06:03:54;9.30;;;7.37;;
21183;SDS011;18176;49.502;11.754;2023-05-14T06:07:55;9.87;;;7.27;;
21183;SDS011;18176;49.502;11.754;2023-05-14T06:11:58;10.50;;;7.63;;
21183;SDS011;18176;49.502;11.754;2023-05-14T06:15:58;8.57;;;7.20;;
21183;SDS011;18176;49.502;11.754;2023-05-14T06:19:58;11.50;;;7.80;;
21183;SDS011;18176;49.502;11.754;2023-05-14T06:23:58;9.73;;;7.40;;
21183;SDS011;18176;49.502;11.754;2023-05-14T06:28:01;8.50;;;7.13;;
21183;SDS011;18176;49.502;11.754;2023-05-14T06:32:02;8.67;;;7.23;;
21183;SDS011;18176;49.502;11.754;2023-05-14T06:36:04;9.50;;;6.97;;
21183;SDS011;18176;49.502;11.754;2023-05-14T06:40:06;8.93;;;7.27;;
21183;SDS011;18176;49.502;11.754;2023-05-14T06:44:11;8.80;;;7.07;;
21183;SDS011;18176;49.502;11.754;2023-05-14T06:48:11;8.87;;;7.03;;
21183;SDS011;18176;49.502;11.754;2023-05-14T06:52:12;9.80;;;6.53;;
21183;SDS011;18176;49.502;11.754;2023-05-14T06:56:12;7.18;;;6.10;;
21183;SDS011;18176;49.502;11.754;2023-05-14T07:00:16;7.13;;;6.20;;
21183;SDS011;18176;49.502;11.754;2023-05-14T07:04:18;8.10;;;6.18;;
21183;SDS011;18176;49.502;11.754;2023-05-14T07:08:18;9.48;;;6.15;;
21183;SDS011;18176;49.502;11.754;2023-05-14T07:12:18;6.75;;;5.75;;
21183;SDS011;18176;49.502;11.754;2023-05-14T07:16:21;9.80;;;7.35;;
21183;SDS011;18176;49.502;11.754;2023-05-14T07:20:22;6.57;;;5.70;;
21183;SDS011;18176;49.502;11.754;2023-05-14T07:24:22;7.05;;;5.70;;
21183;SDS011;18176;49.502;11.754;2023-05-14T07:28:23;9.98;;;6.57;;
21183;SDS011;18176;49.502;11.754;2023-05-14T07:32:26;7.38;;;5.75;;
21183;SDS011;18176;49.502;11.754;2023-05-14T07:36:27;6.10;;;5.00;;
21183;SDS011;18176;49.502;11.754;2023-05-14T07:40:27;5.60;;;4.88;;
21183;SDS011;18176;49.502;11.754;2023-05-14T07:44:27;6.57;;;5.10;;
21183;SDS011;18176;49.502;11.754;2023-05-14T07:48:30;6.05;;;5.22;;
21183;SDS011;18176;49.502;11.754;2023-05-14T07:52:31;7.25;;;5.22;;
21183;SDS011;18176;49.502;11.754;2023-05-14T07:56:31;6.95;;;5.20;;
21183;SDS011;18176;49.502;11.754;2023-05-14T08:00:31;6.20;;;4.95;;
21183;SDS011;18176;49.502;11.754;2023-05-14T08:04:34;6.85;;;4.95;;
21183;SDS011;18176;49.502;11.754;2023-05-14T08:08:35;6.95;;;5.05;;
21183;SDS011;18176;49.502;11.754;2023-05-14T08:12:35;7.65;;;5.55;;
21183;SDS011;18176;49.502;11.754;2023-05-14T08:16:36;6.45;;;5.40;;
21183;SDS011;18176;49.502;11.754;2023-05-14T08:20:39;6.30;;;5.38;;
21183;SDS011;18176;49.502;11.754;2023-05-14T08:24:39;6.07;;;5.22;;
21183;SDS011;18176;49.502;11.754;2023-05-14T08:28:40;7.80;;;5.15;;
21183;SDS011;18176;49.502;11.754;2023-05-14T08:32:40;7.63;;;5.38;;
21183;SDS011;18176;49.502;11.754;2023-05-14T08:36:44;6.00;;;5.40;;
21183;SDS011;18176;49.502;11.754;2023-05-14T08:40:46;12.55;;;5.75;;
21183;SDS011;18176;49.502;11.754;2023-05-14T08:44:48;6.85;;;5.40;;
21183;SDS011;18176;49.502;11.754;2023-05-14T08:49:01;7.05;;;5.95;;
21183;SDS011;18176;49.502;11.754;2023-05-14T08:53:16;6.88;;;5.47;;
21183;SDS011;18176;49.502;11.754;2023-05-14T08:57:18;6.72;;;5.55;;
21183;SDS011;18176;49.502;11.754;2023-05-14T09:01:20;6.47;;;4.90;;
21183;SDS011;18176;49.502;11.754;2023-05-14T09:05:21;5.82;;;5.22;;
21183;SDS011;18176;49.502;11.754;2023-05-14T09:09:27;6.80;;;5.75;;
21183;SDS011;18176;49.502;11.754;2023-05-14T09:13:28;7.35;;;6.10;;
21183;SDS011;18176;49.502;11.754;2023-05-14T09:17:28;7.22;;;6.20;;
21183;SDS011;18176;49.502;11.754;2023-05-14T09:21:29;7.45;;;6.68;;
21183;SDS011;18176;49.502;11.754;2023-05-14T09:25:32;7.00;;;6.30;;
21183;SDS011;18176;49.502;11.754;2023-05-14T09:29:32;7.20;;;6.50;;
21183;SDS011;18176;49.502;11.754;2023-05-14T09:33:33;6.53;;;5.88;;
21183;SDS011;18176;49.502;11.754;2023-05-14T09:37:34;6.20;;;5.60;;
21183;SDS011;18176;49.502;11.754;2023-05-14T09:41:38;5.88;;;5.20;;
21183;SDS011;18176;49.502;11.754;2023-05-14T09:45:39;6.13;;;5.10;;
21183;SDS011;18176;49.502;11.754;2023-05-14T09:49:40;6.28;;;5.47;;
21183;SDS011;18176;49.502;11.754;2023-05-14T09:53:40;5.68;;;4.88;;
21183;SDS011;18176;49.502;11.754;2023-05-14T09:57:45;6.45;;;5.82;;
21183;SDS011;18176;49.502;11.754;2023-05-14T10:01:45;6.80;;;6.10;;
21183;SDS011;18176;49.502;11.754;2023-05-14T10:05:48;7.72;;;6.70;;
21183;SDS011;18176;49.502;11.754;2023-05-14T10:09:50;11.60;;;7.03;;
21183;SDS011;18176;49.502;11.754;2023-05-14T10:14:01;6.88;;;5.55;;
21183;SDS011;18176;49.502;11.754;2023-05-14T10:18:08;5.72;;;4.85;;
21183;SDS011;18176;49.502;11.754;2023-05-14T10:22:11;5.57;;;5.03;;
21183;SDS011;18176;49.502;11.754;2023-05-14T10:26:16;6.13;;;5.03;;
21183;SDS011;18176;49.502;11.754;2023-05-14T10:30:22;5.10;;;4.60;;
21183;SDS011;18176;49.502;11.754;2023-05-14T10:34:29;5.63;;;4.93;;
21183;SDS011;18176;49.502;11.754;2023-05-14T10:38:33;5.00;;;4.50;;
21183;SDS011;18176;49.502;11.754;2023-05-14T10:42:37;4.82;;;3.92;;
21183;SDS011;18176;49.502;11.754;2023-05-14T10:46:41;4.53;;;4.13;;
21183;SDS011;18176;49.502;11.754;2023-05-14T10:50:43;4.78;;;4.13;;
21183;SDS011;18176;49.502;11.754;2023-05-14T10:54:50;5.68;;;4.60;;
21183;SDS011;18176;49.502;11.754;2023-05-14T10:58:52;5.90;;;5.10;;
21183;SDS011;18176;49.502;11.754;2023-05-14T11:03:02;4.97;;;4.20;;
21183;SDS011;18176;49.502;11.754;2023-05-14T11:07:06;8.10;;;4.00;;
21183;SDS011;18176;49.502;11.754;2023-05-14T11:11:08;4.82;;;4.32;;
21183;SDS011;18176;49.502;11.754;2023-05-14T11:15:10;5.00;;;4.50;;
21183;SDS011;18176;49.502;11.754;2023-05-14T11:19:16;5.47;;;4.28;;
21183;SDS011;18176;49.502;11.754;2023-05-14T11:23:21;5.50;;;3.78;;
21183;SDS011;18176;49.502;11.754;2023-05-14T11:27:23;4.32;;;3.92;;
21183;SDS011;18176;49.502;11.754;2023-05-14T11:31:24;4.50;;;4.00;;
21183;SDS011;18176;49.502;11.754;2023-05-14T11:35:27;7.18;;;4.05;;
21183;SDS011;18176;49.502;11.754;2023-05-14T11:39:28;7.60;;;4.35;;
21183;SDS011;18176;49.502;11.754;2023-05-14T11:43:31;6.72;;;4.53;;
21183;SDS011;18176;49.502;11.754;2023-05-14T11:47:35;5.95;;;4.43;;
21183;SDS011;18176;49.502;11.754;2023-05-14T11:51:38;5.70;;;4.78;;
21183;SDS011;18176;49.502;11.754;2023-05-14T11:55:38;5.70;;;4.40;;
21183;SDS011;18176;49.502;11.754;2023-05-14T11:59:39;4.82;;;4.25;;
21183;SDS011;18176;49.502;11.754;2023-05-14T12:03:40;5.07;;;4.55;;
21183;SDS011;18176;49.502;11.754;2023-05-14T12:07:45;5.07;;;4.00;;
21183;SDS011;18176;49.502;11.754;2023-05-14T12:11:46;5.05;;;4.20;;
21183;SDS011;18176;49.502;11.754;2023-05-14T12:15:53;9.40;;;6.82;;
21183;SDS011;18176;49.502;11.754;2023-05-14T12:19:55;4.55;;;3.72;;
21183;SDS011;18176;49.502;11.754;2023-05-14T12:23:59;5.80;;;4.75;;
21183;SDS011;18176;49.502;11.754;2023-05-14T12:28:00;4.35;;;3.95;;
21183;SDS011;18176;49.502;11.754;2023-05-14T12:32:00;4.22;;;3.80;;
21183;SDS011;18176;49.502;11.754;2023-05-14T12:36:04;4.60;;;4.18;;
21183;SDS011;18176;49.502;11.754;2023-05-14T12:40:20;5.95;;;4.50;;
21183;SDS011;18176;49.502;11.754;2023-05-14T12:44:21;5.90;;;5.18;;
21183;SDS011;18176;49.502;11.754;2023-05-14T12:48:21;5.30;;;4.80;;
21183;SDS011;18176;49.502;11.754;2023-05-14T12:52:22;5.00;;;4.57;;
21183;SDS011;18176;49.502;11.754;2023-05-14T12:56:37;4.70;;;4.18;;
21183;SDS011;18176;49.502;11.754;2023-05-14T13:00:37;4.28;;;3.95;;
21183;SDS011;18176;49.502;11.754;2023-05-14T13:04:37;4.78;;;4.40;;
21183;SDS011;18176;49.502;11.754;2023-05-14T13:08:38;4.75;;;4.35;;
21183;SDS011;18176;49.502;11.754;2023-05-14T13:12:41;4.57;;;4.03;;
21183;SDS011;18176;49.502;11.754;2023-05-14T13:16:42;4.90;;;4.50;;
21183;SDS011;18176;49.502;11.754;2023-05-14T13:20:44;4.90;;;4.40;;
21183;SDS011;18176;49.502;11.754;2023-05-14T13:24:45;5.28;;;4.78;;
21183;SDS011;18176;49.502;11.754;2023-05-14T13:28:48;6.25;;;4.70;;
21183;SDS011;18176;49.502;11.754;2023-05-14T13:32:48;4.80;;;4.40;;
21183;SDS011;18176;49.502;11.754;2023-05-14T13:36:50;5.30;;;4.80;;
21183;SDS011;18176;49.502;11.754;2023-05-14T13:40:50;5.35;;;4.30;;
21183;SDS011;18176;49.502;11.754;2023-05-14T13:44:56;4.88;;;4.35;;
21183;SDS011;18176;49.502;11.754;2023-05-14T13:48:58;6.53;;;3.90;;
21183;SDS011;18176;49.502;11.754;2023-05-14T13:52:58;8.05;;;4.40;;
21183;SDS011;18176;49.502;11.754;2023-05-14T13:56:58;6.68;;;3.70;;
21183;SDS011;18176;49.502;11.754;2023-05-14T14:01:01;4.75;;;3.88;;
21183;SDS011;18176;49.502;11.754;2023-05-14T14:05:01;4.60;;;3.90;;
21183;SDS011;18176;49.502;11.754;2023-05-14T14:09:01;4.13;;;3.65;;
21183;SDS011;18176;49.502;11.754;2023-05-14T14:13:02;4.97;;;4.18;;
21183;SDS011;18176;49.502;11.754;2023-05-14T14:17:05;4.13;;;3.70;;
21183;SDS011;18176;49.502;11.754;2023-05-14T14:21:06;3.88;;;3.47;;
21183;SDS011;18176;49.502;11.754;2023-05-14T14:25:06;4.40;;;4.00;;
21183;SDS011;18176;49.502;11.754;2023-05-14T14:29:08;4.72;;;4.22;;
21183;SDS011;18176;49.502;11.754;2023-05-14T14:33:11;6.03;;;4.30;;
21183;SDS011;18176;49.502;11.754;2023-05-14T14:37:11;4.85;;;4.32;;
21183;SDS011;18176;49.502;11.754;2023-05-14T14:41:11;5.63;;;4.40;;
21183;SDS011;18176;49.502;11.754;2023-05-14T14:45:12;5.57;;;4.13;;
21183;SDS011;18176;49.502;11.754;2023-05-14T14:49:14;4.50;;;4.10;;
21183;SDS011;18176;49.502;11.754;2023-05-14T14:53:15;6.90;;;4.75;;
21183;SDS011;18176;49.502;11.754;2023-05-14T14:57:15;5.13;;;4.47;;
21183;SDS011;18176;49.502;11.754;2023-05-14T15:01:15;6.03;;;4.28;;
21183;SDS011;18176;49.502;11.754;2023-05-14T15:05:19;4.43;;;4.03;;
21183;SDS011;18176;49.502;11.754;2023-05-14T15:09:20;6.50;;;4.60;;
21183;SDS011;18176;49.502;11.754;2023-05-14T15:13:20;5.95;;;4.30;;
21183;SDS011;18176;49.502;11.754;2023-05-14T15:17:22;8.68;;;4.32;;
21183;SDS011;18176;49.502;11.754;2023-05-14T15:21:25;4.20;;;3.78;;
21183;SDS011;18176;49.502;11.754;2023-05-14T15:25:26;4.55;;;3.92;;
21183;SDS011;18176;49.502;11.754;2023-05-14T15:29:26;4.63;;;4.15;;
21183;SDS011;18176;49.502;11.754;2023-05-14T15:33:26;4.25;;;3.60;;
21183;SDS011;18176;49.502;11.754;2023-05-14T15:37:29;5.13;;;4.05;;
21183;SDS011;18176;49.502;11.754;2023-05-14T15:41:36;4.10;;;3.70;;
21183;SDS011;18176;49.502;11.754;2023-05-14T15:45:37;4.07;;;3.63;;
21183;SDS011;18176;49.502;11.754;2023-05-14T15:49:37;5.43;;;4.03;;
21183;SDS011;18176;49.502;11.754;2023-05-14T15:53:40;4.80;;;3.72;;
21183;SDS011;18176;49.502;11.754;2023-05-14T15:57:40;5.85;;;3.83;;
21183;SDS011;18176;49.502;11.754;2023-05-14T16:01:44;5.47;;;3.70;;
21183;SDS011;18176;49.502;11.754;2023-05-14T16:05:45;6.70;;;4.00;;
21183;SDS011;18176;49.502;11.754;2023-05-14T16:09:49;4.70;;;3.55;;
21183;SDS011;18176;49.502;11.754;2023-05-14T16:13:49;9.23;;;4.20;;
21183;SDS011;18176;49.502;11.754;2023-05-14T16:17:49;3.80;;;3.40;;
21183;SDS011;18176;49.502;11.754;2023-05-14T16:21:50;4.63;;;4.13;;
21183;SDS011;18176;49.502;11.754;2023-05-14T16:25:52;4.70;;;3.30;;
21183;SDS011;18176;49.502;11.754;2023-05-14T16:29:53;4.22;;;3.65;;
21183;SDS011;18176;49.502;11.754;2023-05-14T16:33:53;4.72;;;3.60;;
21183;SDS011;18176;49.502;11.754;2023-05-14T16:37:53;5.80;;;3.58;;
21183;SDS011;18176;49.502;11.754;2023-05-14T16:41:57;5.53;;;3.80;;
21183;SDS011;18176;49.502;11.754;2023-05-14T16:45:57;6.63;;;3.88;;
21183;SDS011;18176;49.502;11.754;2023-05-14T16:49:57;5.90;;;4.13;;
21183;SDS011;18176;49.502;11.754;2023-05-14T16:53:58;4.43;;;4.03;;
21183;SDS011;18176;49.502;11.754;2023-05-14T16:58:01;4.10;;;3.70;;
21183;SDS011;18176;49.502;11.754;2023-05-14T17:02:01;6.20;;;4.15;;
21183;SDS011;18176;49.502;11.754;2023-05-14T17:06:01;8.65;;;4.07;;
21183;SDS011;18176;49.502;11.754;2023-05-14T17:10:03;5.38;;;3.60;;
21183;SDS011;18176;49.502;11.754;2023-05-14T17:14:07;5.47;;;4.05;;
21183;SDS011;18176;49.502;11.754;2023-05-14T17:18:08;6.32;;;4.10;;
21183;SDS011;18176;49.502;11.754;2023-05-14T17:22:09;5.38;;;3.85;;
21183;SDS011;18176;49.502;11.754;2023-05-14T17:26:09;4.90;;;3.78;;
21183;SDS011;18176;49.502;11.754;2023-05-14T17:30:13;5.05;;;3.10;;
21183;SDS011;18176;49.502;11.754;2023-05-14T17:34:13;5.78;;;3.60;;
21183;SDS011;18176;49.502;11.754;2023-05-14T17:38:13;5.72;;;3.30;;
21183;SDS011;18176;49.502;11.754;2023-05-14T17:42:14;3.05;;;2.75;;
21183;SDS011;18176;49.502;11.754;2023-05-14T17:46:17;5.47;;;3.10;;
21183;SDS011;18176;49.502;11.754;2023-05-14T17:50:18;6.03;;;3.20;;
21183;SDS011;18176;49.502;11.754;2023-05-14T17:54:18;5.25;;;4.00;;
21183;SDS011;18176;49.502;11.754;2023-05-14T17:58:18;5.25;;;3.67;;
21183;SDS011;18176;49.502;11.754;2023-05-14T18:02:21;4.40;;;4.00;;
21183;SDS011;18176;49.502;11.754;2023-05-14T18:06:22;5.25;;;3.78;;
21183;SDS011;18176;49.502;11.754;2023-05-14T18:10:22;4.03;;;3.63;;
21183;SDS011;18176;49.502;11.754;2023-05-14T18:14:25;3.88;;;3.50;;
21183;SDS011;18176;49.502;11.754;2023-05-14T18:18:28;5.53;;;3.75;;
21183;SDS011;18176;49.502;11.754;2023-05-14T18:22:29;5.10;;;4.03;;
21183;SDS011;18176;49.502;11.754;2023-05-14T18:26:29;4.95;;;3.70;;
21183;SDS011;18176;49.502;11.754;2023-05-14T18:30:30;4.45;;;3.80;;
21183;SDS011;18176;49.502;11.754;2023-05-14T18:34:33;4.07;;;3.63;;
21183;SDS011;18176;49.502;11.754;2023-05-14T18:38:34;5.90;;;3.45;;
21183;SDS011;18176;49.502;11.754;2023-05-14T18:42:34;4.18;;;3.22;;
21183;SDS011;18176;49.502;11.754;2023-05-14T18:46:34;4.05;;;3.60;;
21183;SDS011;18176;49.502;11.754;2023-05-14T18:50:38;5.05;;;3.10;;
21183;SDS011;18176;49.502;11.754;2023-05-14T18:54:39;4.28;;;3.05;;
21183;SDS011;18176;49.502;11.754;2023-05-14T18:58:39;4.90;;;3.55;;
21183;SDS011;18176;49.502;11.754;2023-05-14T19:02:40;4.77;;;3.40;;
21183;SDS011;18176;49.502;11.754;2023-05-14T19:06:43;4.97;;;3.10;;
21183;SDS011;18176;49.502;11.754;2023-05-14T19:10:43;3.58;;;2.90;;
21183;SDS011;18176;49.502;11.754;2023-05-14T19:14:44;5.93;;;3.30;;
21183;SDS011;18176;49.502;11.754;2023-05-14T19:18:44;3.28;;;2.88;;
21183;SDS011;18176;49.502;11.754;2023-05-14T19:22:47;3.78;;;3.20;;
21183;SDS011;18176;49.502;11.754;2023-05-14T19:26:49;4.17;;;3.33;;
21183;SDS011;18176;49.502;11.754;2023-05-14T19:30:49;4.70;;;3.07;;
21183;SDS011;18176;49.502;11.754;2023-05-14T19:34:50;3.10;;;2.80;;
21183;SDS011;18176;49.502;11.754;2023-05-14T19:38:53;3.50;;;3.10;;
21183;SDS011;18176;49.502;11.754;2023-05-14T19:42:56;3.60;;;3.07;;
21183;SDS011;18176;49.502;11.754;2023-05-14T19:46:56;14.30;;;9.23;;
21183;SDS011;18176;49.502;11.754;2023-05-14T19:50:57;4.87;;;3.80;;
21183;SDS011;18176;49.502;11.754;2023-05-14T19:55:00;4.10;;;3.70;;
21183;SDS011;18176;49.502;11.754;2023-05-14T19:59:01;5.53;;;4.30;;
21183;SDS011;18176;49.502;11.754;2023-05-14T20:03:01;4.60;;;4.10;;
21183;SDS011;18176;49.502;11.754;2023-05-14T20:07:02;5.00;;;4.50;;
21183;SDS011;18176;49.502;11.754;2023-05-14T20:11:06;6.73;;;4.70;;
21183;SDS011;18176;49.502;11.754;2023-05-14T20:15:07;5.63;;;4.60;;
21183;SDS011;18176;49.502;11.754;2023-05-14T20:19:08;5.67;;;4.47;;
21183;SDS011;18176;49.502;11.754;2023-05-14T20:23:09;5.23;;;4.60;;
21183;SDS011;18176;49.502;11.754;2023-05-14T20:27:12;6.60;;;4.30;;
21183;SDS011;18176;49.502;11.754;2023-05-14T20:31:12;6.13;;;4.10;;
21183;SDS011;18176;49.502;11.754;2023-05-14T20:35:12;5.23;;;3.77;;
21183;SDS011;18176;49.502;11.754;2023-05-14T20:39:14;4.17;;;3.77;;
21183;SDS011;18176;49.502;11.754;2023-05-14T20:43:18;7.57;;;5.00;;
21183;SDS011;18176;49.502;11.754;2023-05-14T20:47:18;8.87;;;6.00;;
21183;SDS011;18176;49.502;11.754;2023-05-14T20:51:20;5.27;;;4.67;;
21183;SDS011;18176;49.502;11.754;2023-05-14T20:55:20;5.23;;;4.43;;
21183;SDS011;18176;49.502;11.754;2023-05-14T20:59:23;5.77;;;4.50;;
21183;SDS011;18176;49.502;11.754;2023-05-14T21:03:23;5.10;;;4.40;;
21183;SDS011;18176;49.502;11.754;2023-05-14T21:07:24;7.13;;;4.20;;
21183;SDS011;18176;49.502;11.754;2023-05-14T21:11:24;4.43;;;4.03;;
21183;SDS011;18176;49.502;11.754;2023-05-14T21:15:27;5.37;;;4.30;;
21183;SDS011;18176;49.502;11.754;2023-05-14T21:19:28;5.87;;;4.10;;
21183;SDS011;18176;49.502;11.754;2023-05-14T21:23:28;5.97;;;4.00;;
21183;SDS011;18176;49.502;11.754;2023-05-14T21:27:28;5.37;;;3.67;;
21183;SDS011;18176;49.502;11.754;2023-05-14T21:31:31;5.83;;;4.00;;
21183;SDS011;18176;49.502;11.754;2023-05-14T21:35:32;4.30;;;3.90;;
21183;SDS011;18176;49.502;11.754;2023-05-14T21:39:32;5.80;;;3.80;;
21183;SDS011;18176;49.502;11.754;2023-05-14T21:43:33;4.60;;;4.03;;
21183;SDS011;18176;49.502;11.754;2023-05-14T21:47:39;7.00;;;4.00;;
21183;SDS011;18176;49.502;11.754;2023-05-14T21:51:39;6.37;;;4.30;;
21183;SDS011;18176;49.502;11.754;2023-05-14T21:55:40;7.47;;;5.70;;
21183;SDS011;18176;49.502;11.754;2023-05-14T21:59:40;6.70;;;4.70;;
21183;SDS011;18176;49.502;11.754;2023-05-14T22:03:43;6.83;;;4.83;;
21183;SDS011;18176;49.502;11.754;2023-05-14T22:07:43;5.67;;;4.43;;
21183;SDS011;18176;49.502;11.754;2023-05-14T22:11:43;5.43;;;4.33;;
21183;SDS011;18176;49.502;11.754;2023-05-14T22:15:44;5.07;;;4.23;;
21183;SDS011;18176;49.502;11.754;2023-05-14T22:19:51;5.33;;;4.20;;
21183;SDS011;18176;49.502;11.754;2023-05-14T22:23:51;7.23;;;4.20;;
21183;SDS011;18176;49.502;11.754;2023-05-14T22:27:51;5.47;;;4.13;;
21183;SDS011;18176;49.502;11.754;2023-05-14T22:31:52;4.73;;;3.80;;
21183;SDS011;18176;49.502;11.754;2023-05-14T22:35:54;4.07;;;3.67;;
21183;SDS011;18176;49.502;11.754;2023-05-14T22:39:55;4.63;;;3.97;;
21183;SDS011;18176;49.502;11.754;2023-05-14T22:43:55;5.53;;;3.60;;
21183;SDS011;18176;49.502;11.754;2023-05-14T22:47:55;6.60;;;3.40;;
21183;SDS011;18176;49.502;11.754;2023-05-14T22:52:00;7.17;;;3.37;;
21183;SDS011;18176;49.502;11.754;2023-05-14T22:56:01;4.10;;;3.50;;
21183;SDS011;18176;49.502;11.754;2023-05-14T23:00:02;8.03;;;3.50;;
21183;SDS011;18176;49.502;11.754;2023-05-14T23:04:04;5.23;;;3.70;;
21183;SDS011;18176;49.502;11.754;2023-05-14T23:08:07;6.07;;;3.70;;
21183;SDS011;18176;49.502;11.754;2023-05-14T23:12:08;4.33;;;3.37;;
21183;SDS011;18176;49.502;11.754;2023-05-14T23:16:09;5.27;;;3.90;;
21183;SDS011;18176;49.502;11.754;2023-05-14T23:20:09;4.13;;;3.60;;
21183;SDS011;18176;49.502;11.754;2023-05-14T23:24:13;4.87;;;3.67;;
21183;SDS011;18176;49.502;11.754;2023-05-14T23:28:13;3.90;;;3.50;;
21183;SDS011;18176;49.502;11.754;2023-05-14T23:32:14;4.13;;;3.40;;
21183;SDS011;18176;49.502;11.754;2023-05-14T23:36:14;3.90;;;3.50;;
21183;SDS011;18176;49.502;11.754;2023-05-14T23:40:17;4.53;;;3.60;;
21183;SDS011;18176;49.502;11.754;2023-05-14T23:44:17;5.13;;;4.27;;
21183;SDS011;18176;49.502;11.754;2023-05-14T23:48:18;7.23;;;4.50;;